createdAt,value
2018-07-17T00:05:02.102Z,8.00
2018-07-17T00:10:04.493Z,8.53
2018-07-17T00:15:06.705Z,9.30
2018-07-17T00:20:08.848Z,8.57
2018-07-17T00:25:11.015Z,8.47
2018-07-17T00:30:13.174Z,9.30
2018-07-17T00:35:15.353Z,9.00
2018-07-17T00:40:17.484Z,8.47
2018-07-17T00:45:19.646Z,8.10
2018-07-17T00:50:21.973Z,8.07
2018-07-17T00:55:24.103Z,8.47
2018-07-17T01:00:32.058Z,8.80
2018-07-17T01:05:39.952Z,9.20
2018-07-17T01:10:47.819Z,9.37
2018-07-17T01:15:50.006Z,8.93
2018-07-17T01:20:52.187Z,7.97
2018-07-17T01:25:54.372Z,7.93
2018-07-17T01:30:56.495Z,8.20
2018-07-17T01:35:58.658Z,8.70
2018-07-17T01:41:00.820Z,7.60
2018-07-17T01:46:02.955Z,7.67
2018-07-17T01:51:05.105Z,8.60
2018-07-17T01:56:07.247Z,7.70
2018-07-17T02:01:09.391Z,8.20
2018-07-17T02:06:11.564Z,7.90
2018-07-17T02:11:13.716Z,7.77
2018-07-17T02:16:15.863Z,8.00
2018-07-17T02:21:17.983Z,7.13
2018-07-17T02:26:20.117Z,7.60
2018-07-17T02:31:22.235Z,7.23
2018-07-17T02:36:24.369Z,7.97
2018-07-17T02:41:26.498Z,8.23
2018-07-17T02:46:28.648Z,8.17
2018-07-17T02:51:30.773Z,8.90
2018-07-17T02:56:32.919Z,7.93
2018-07-17T03:01:35.054Z,7.50
2018-07-17T03:06:37.180Z,7.70
2018-07-17T03:11:39.326Z,8.30
2018-07-17T03:16:41.483Z,8.97
2018-07-17T03:21:43.638Z,9.63
2018-07-17T03:26:45.732Z,8.20
2018-07-17T03:31:47.862Z,8.37
2018-07-17T03:36:50.003Z,8.20
2018-07-17T03:41:52.166Z,8.40
2018-07-17T03:46:54.262Z,7.80
2018-07-17T03:51:56.463Z,8.90
2018-07-17T03:56:58.599Z,7.67
2018-07-17T04:02:00.700Z,8.60
2018-07-17T04:07:02.878Z,8.53
2018-07-17T04:12:05.187Z,8.43
2018-07-17T04:17:07.365Z,8.87
2018-07-17T04:22:09.533Z,7.73
2018-07-17T04:27:11.745Z,8.20
2018-07-17T04:32:13.858Z,8.30
2018-07-17T04:37:16.087Z,8.73
2018-07-17T04:42:18.231Z,9.03
2018-07-17T04:47:20.376Z,9.20
2018-07-17T04:52:22.539Z,11.17
2018-07-17T04:57:24.692Z,10.87
2018-07-17T05:02:26.821Z,10.47
2018-07-17T05:07:28.947Z,11.43
2018-07-17T05:12:31.186Z,11.67
2018-07-17T05:17:33.330Z,10.20
2018-07-17T05:22:35.523Z,9.30
2018-07-17T05:27:37.680Z,9.60
2018-07-17T05:32:39.810Z,8.10
2018-07-17T05:37:42.395Z,7.93
2018-07-17T05:42:44.631Z,7.70
2018-07-17T05:47:46.818Z,7.00
2018-07-17T05:52:48.977Z,7.50
2018-07-17T05:57:51.118Z,6.90
2018-07-17T06:02:53.297Z,6.40
2018-07-17T06:07:55.425Z,6.40
2018-07-17T06:12:58.075Z,5.97
2018-07-17T06:18:00.232Z,6.30
2018-07-17T06:23:02.394Z,4.60
2018-07-17T06:28:04.556Z,5.27
2018-07-17T06:33:06.703Z,5.73
2018-07-17T06:38:08.888Z,4.87
2018-07-17T06:43:11.031Z,4.03
2018-07-17T06:48:13.167Z,4.90
2018-07-17T06:53:15.365Z,5.90
2018-07-17T06:58:17.528Z,5.63
2018-07-17T07:03:19.658Z,3.70
2018-07-17T07:08:21.788Z,11.93
2018-07-17T07:13:23.963Z,3.90
2018-07-17T07:18:26.214Z,4.67
2018-07-17T07:23:28.387Z,4.83
2018-07-17T07:28:30.564Z,3.37
2018-07-17T07:33:32.776Z,4.20
2018-07-17T07:38:34.975Z,3.77
2018-07-17T07:43:37.136Z,3.73
2018-07-17T07:48:39.299Z,3.50
2018-07-17T07:53:41.523Z,3.77
2018-07-17T07:58:44.498Z,3.43
2018-07-17T08:03:46.641Z,3.67
2018-07-17T08:08:48.799Z,4.20
2018-07-17T08:13:50.969Z,3.60
2018-07-17T08:18:53.091Z,3.90
2018-07-17T08:23:55.259Z,4.03
2018-07-17T08:28:57.371Z,3.27
2018-07-17T08:33:59.522Z,3.63
2018-07-17T08:39:01.667Z,4.30
2018-07-17T08:44:03.878Z,3.60
2018-07-17T08:49:06.144Z,4.20
2018-07-17T08:54:08.368Z,4.17
2018-07-17T08:59:10.612Z,4.10
2018-07-17T09:04:12.772Z,3.70
2018-07-17T09:09:14.943Z,4.20
2018-07-17T09:14:17.095Z,4.43
2018-07-17T09:19:19.238Z,3.50
2018-07-17T09:24:21.416Z,3.53
2018-07-17T09:29:23.815Z,3.87
2018-07-17T09:34:25.995Z,4.10
2018-07-17T09:39:28.160Z,4.10
2018-07-17T09:44:30.362Z,3.30
2018-07-17T09:49:32.465Z,3.90
2018-07-17T09:54:34.616Z,3.90
2018-07-17T09:59:36.783Z,3.70
2018-07-17T10:04:38.999Z,3.50
2018-07-17T10:09:41.107Z,3.90
2018-07-17T10:14:43.235Z,4.03
2018-07-17T10:19:45.401Z,4.10
2018-07-17T10:24:47.525Z,3.30
2018-07-17T10:29:49.683Z,3.23
2018-07-17T10:34:51.895Z,3.80
2018-07-17T10:39:54.050Z,4.03
2018-07-17T10:44:56.220Z,3.67
2018-07-17T10:49:58.367Z,3.73
2018-07-17T10:55:00.593Z,3.63
2018-07-17T11:00:02.818Z,4.10
2018-07-17T11:05:04.994Z,3.30
2018-07-17T11:10:07.160Z,3.87
2018-07-17T11:15:09.310Z,3.10
2018-07-17T11:20:11.460Z,3.70
2018-07-17T11:25:13.545Z,4.50
2018-07-17T11:30:15.703Z,3.57
2018-07-17T11:35:17.874Z,3.77
2018-07-17T11:40:20.071Z,3.83
2018-07-17T11:45:22.259Z,3.80
2018-07-17T11:50:24.428Z,3.50
2018-07-17T11:55:26.609Z,3.80
2018-07-17T12:00:28.764Z,4.07
2018-07-17T12:05:30.980Z,3.27
2018-07-17T12:10:33.089Z,4.10
2018-07-17T12:15:35.261Z,3.80
2018-07-17T12:20:37.570Z,3.90
2018-07-17T12:25:39.597Z,4.40
2018-07-17T12:30:41.909Z,4.10
2018-07-17T12:35:44.075Z,4.10
2018-07-17T12:40:46.335Z,4.10
2018-07-17T12:45:48.498Z,4.07
2018-07-17T12:50:50.701Z,3.73
2018-07-17T12:55:52.929Z,3.70
2018-07-17T13:00:55.102Z,4.03
2018-07-17T13:05:57.244Z,3.73
2018-07-17T13:10:59.415Z,4.03
2018-07-17T13:16:01.573Z,3.80
2018-07-17T13:21:03.723Z,4.13
2018-07-17T13:26:06.192Z,5.00
2018-07-17T13:31:08.350Z,4.23
2018-07-17T13:36:10.552Z,3.80
2018-07-17T13:41:12.724Z,4.67
2018-07-17T13:46:14.874Z,4.20
2018-07-17T13:51:17.051Z,4.47
2018-07-17T13:56:19.337Z,3.93
2018-07-17T14:01:21.491Z,4.17
2018-07-17T14:06:23.690Z,4.10
2018-07-17T14:11:25.868Z,3.67
2018-07-17T14:16:28.021Z,4.13
2018-07-17T14:21:30.336Z,3.70
2018-07-17T14:26:32.496Z,3.40
2018-07-17T14:31:34.655Z,3.73
2018-07-17T14:36:36.844Z,3.37
2018-07-17T14:41:39.196Z,3.07
2018-07-17T14:46:41.287Z,3.60
2018-07-17T14:51:43.435Z,3.70
2018-07-17T14:56:45.722Z,3.67
2018-07-17T15:01:47.932Z,3.90
2018-07-17T15:06:50.097Z,3.77
2018-07-17T15:11:52.229Z,3.60
2018-07-17T15:16:54.372Z,3.93
2018-07-17T15:21:56.615Z,4.80
2018-07-17T15:26:58.765Z,3.37
2018-07-17T15:32:00.932Z,3.90
2018-07-17T15:37:03.203Z,4.03
2018-07-17T15:42:05.694Z,4.67
2018-07-17T15:47:07.865Z,3.77
2018-07-17T15:52:10.134Z,3.50
2018-07-17T15:57:12.404Z,3.70
2018-07-17T16:02:14.644Z,3.77
2018-07-17T16:07:16.831Z,3.10
2018-07-17T16:12:19.029Z,3.13
2018-07-17T16:17:21.250Z,3.03
2018-07-17T16:22:23.451Z,3.07
2018-07-17T16:27:25.667Z,3.20
2018-07-17T16:32:27.922Z,3.00
2018-07-17T16:37:30.137Z,2.97
2018-07-17T16:42:32.330Z,3.10
2018-07-17T16:47:34.511Z,3.60
2018-07-17T16:52:36.830Z,3.00
2018-07-17T16:57:39.080Z,2.93
2018-07-17T17:02:41.259Z,3.20
2018-07-17T17:07:43.444Z,2.97
2018-07-17T17:12:45.628Z,3.40
2018-07-17T17:17:47.802Z,3.00
2018-07-17T17:22:49.980Z,3.27
2018-07-17T17:27:52.141Z,3.43
2018-07-17T17:32:54.458Z,3.60
2018-07-17T17:37:56.640Z,3.33
2018-07-17T17:42:58.837Z,3.90
2018-07-17T17:48:01.110Z,3.30
2018-07-17T17:53:03.369Z,3.30
2018-07-17T17:58:05.995Z,3.20
2018-07-17T18:03:09.019Z,3.03
2018-07-17T18:08:11.224Z,3.57
2018-07-17T18:13:13.457Z,3.33
2018-07-17T18:18:15.683Z,3.80
2018-07-17T18:23:17.977Z,3.90
2018-07-17T18:28:20.239Z,3.57
2018-07-17T18:33:22.545Z,4.40
2018-07-17T18:38:24.726Z,3.40
2018-07-17T18:43:26.998Z,3.80
2018-07-17T18:48:29.287Z,3.50
2018-07-17T18:53:32.285Z,3.50
2018-07-17T18:58:34.650Z,3.17
2018-07-17T19:03:37.249Z,4.27
2018-07-17T19:08:39.526Z,4.10
2018-07-17T19:13:41.811Z,3.67
2018-07-17T19:18:44.027Z,3.43
2018-07-17T19:23:46.341Z,3.13
2018-07-17T19:28:48.569Z,3.03
2018-07-17T19:33:50.922Z,3.27
2018-07-17T19:38:53.240Z,3.00
2018-07-17T19:43:55.498Z,4.60
2018-07-17T19:48:57.764Z,5.80
2018-07-17T19:54:00.230Z,3.77
2018-07-17T19:59:02.539Z,2.60
2018-07-17T20:04:05.166Z,3.40
2018-07-17T20:09:08.061Z,3.53
2018-07-17T20:14:10.394Z,3.60
2018-07-17T20:19:12.631Z,6.07
2018-07-17T20:24:14.920Z,5.30
2018-07-17T20:29:17.187Z,5.87
2018-07-17T20:34:19.474Z,7.30
2018-07-17T20:39:21.830Z,8.20
2018-07-17T20:44:24.106Z,8.63
2018-07-17T20:49:26.350Z,8.70
2018-07-17T20:54:28.637Z,13.87
2018-07-17T20:59:30.912Z,12.67
2018-07-17T21:04:33.142Z,12.90
2018-07-17T21:09:35.379Z,11.53
2018-07-17T21:14:37.565Z,10.67
2018-07-17T21:19:39.823Z,14.57
2018-07-17T21:24:42.065Z,11.60
2018-07-17T21:29:44.282Z,12.47
2018-07-17T21:34:47.159Z,13.60
2018-07-17T21:39:49.471Z,11.53
2018-07-17T21:44:51.744Z,10.60
2018-07-17T21:49:53.987Z,12.30
2018-07-17T21:54:56.180Z,12.07
2018-07-17T21:59:58.406Z,9.40
2018-07-17T22:05:00.541Z,10.77
2018-07-17T22:10:02.758Z,9.50
2018-07-17T22:15:04.984Z,10.67
2018-07-17T22:20:08.036Z,11.30
2018-07-17T22:25:10.260Z,12.10
2018-07-17T22:30:12.465Z,10.67
2018-07-17T22:35:14.668Z,11.20
2018-07-17T22:40:16.822Z,9.00
2018-07-17T22:45:19.003Z,11.20
2018-07-17T22:50:21.162Z,9.30
2018-07-17T22:55:23.462Z,10.93
2018-07-17T23:00:25.705Z,9.50
2018-07-17T23:05:27.892Z,10.17
2018-07-17T23:10:30.078Z,10.50
2018-07-17T23:15:32.214Z,10.80
2018-07-17T23:20:34.363Z,12.80
2018-07-17T23:25:36.528Z,11.97
2018-07-17T23:30:38.708Z,10.70
2018-07-17T23:35:40.885Z,13.60
2018-07-17T23:40:43.027Z,13.20
2018-07-17T23:45:45.191Z,12.00
2018-07-17T23:50:47.329Z,11.33
2018-07-17T23:55:49.454Z,12.00
